sensor_id;sensor_type;location;lat;lon;timestamp;pressure;altitude;pressure_sealevel;temperature;humidity
56630;BME280;42502;40.732;-74.254;2022-08-03T00:01:55;100015.91;;;29.50;36.87
56630;BME280;42502;40.732;-74.254;2022-08-03T00:03:56;100013.19;;;29.43;37.08
56630;BME280;42502;40.732;-74.254;2022-08-03T00:05:57;100026.59;;;29.42;37.17
56630;BME280;42502;40.732;-74.254;2022-08-03T00:08:02;100021.34;;;29.41;36.71
56630;BME280;42502;40.732;-74.254;2022-08-03T00:10:03;100022.63;;;29.36;37.13
56630;BME280;42502;40.732;-74.254;2022-08-03T00:12:04;100020.72;;;29.30;36.94
56630;BME280;42502;40.732;-74.254;2022-08-03T00:14:05;100023.56;;;29.30;36.73
56630;BME280;42502;40.732;-74.254;2022-08-03T00:16:10;100034.00;;;29.36;37.39
56630;BME280;42502;40.732;-74.254;2022-08-03T00:18:11;100033.16;;;29.39;37.42
56630;BME280;42502;40.732;-74.254;2022-08-03T00:20:14;100037.50;;;29.48;37.76
56630;BME280;42502;40.732;-74.254;2022-08-03T00:22:21;100027.34;;;29.47;38.67
56630;BME280;42502;40.732;-74.254;2022-08-03T00:24:21;100038.19;;;29.55;39.12
56630;BME280;42502;40.732;-74.254;2022-08-03T00:26:22;100033.16;;;29.63;39.33
56630;BME280;42502;40.732;-74.254;2022-08-03T00:28:23;100039.19;;;29.69;38.97
56630;BME280;42502;40.732;-74.254;2022-08-03T00:30:27;100039.97;;;29.69;39.15
56630;BME280;42502;40.732;-74.254;2022-08-03T00:32:35;100047.22;;;29.74;39.43
56630;BME280;42502;40.732;-74.254;2022-08-03T00:34:36;100050.38;;;29.80;39.65
56630;BME280;42502;40.732;-74.254;2022-08-03T00:36:37;100055.97;;;29.87;39.43
56630;BME280;42502;40.732;-74.254;2022-08-03T00:38:40;100053.84;;;29.91;39.87
56630;BME280;42502;40.732;-74.254;2022-08-03T00:40:41;100047.72;;;29.92;40.10
56630;BME280;42502;40.732;-74.254;2022-08-03T00:42:46;100055.38;;;29.95;39.78
56630;BME280;42502;40.732;-74.254;2022-08-03T00:44:50;100059.34;;;30.02;39.91
56630;BME280;42502;40.732;-74.254;2022-08-03T00:46:51;100062.06;;;30.09;39.89
56630;BME280;42502;40.732;-74.254;2022-08-03T00:48:52;100067.75;;;30.09;40.03
56630;BME280;42502;40.732;-74.254;2022-08-03T00:50:53;100073.31;;;30.16;40.03
56630;BME280;42502;40.732;-74.254;2022-08-03T00:52:56;100073.69;;;30.18;39.79
56630;BME280;42502;40.732;-74.254;2022-08-03T00:54:57;100088.66;;;30.22;39.64
56630;BME280;42502;40.732;-74.254;2022-08-03T00:56:58;100077.72;;;30.21;39.77
56630;BME280;42502;40.732;-74.254;2022-08-03T00:59:05;100089.41;;;30.26;40.01
56630;BME280;42502;40.732;-74.254;2022-08-03T01:01:06;100083.72;;;30.26;40.32
56630;BME280;42502;40.732;-74.254;2022-08-03T01:03:10;100093.38;;;30.33;39.77
56630;BME280;42502;40.732;-74.254;2022-08-03T01:05:12;100096.56;;;30.35;39.69
56630;BME280;42502;40.732;-74.254;2022-08-03T01:09:57;100097.28;;;30.42;39.46
56630;BME280;42502;40.732;-74.254;2022-08-03T01:14:12;100105.31;;;30.47;39.26
56630;BME280;42502;40.732;-74.254;2022-08-03T01:18:35;100114.16;;;30.53;38.97
56630;BME280;42502;40.732;-74.254;2022-08-03T01:20:43;100111.69;;;30.55;39.20
56630;BME280;42502;40.732;-74.254;2022-08-03T01:23:09;100110.81;;;30.58;38.95
56630;BME280;42502;40.732;-74.254;2022-08-03T01:27:28;100120.94;;;30.59;39.20
56630;BME280;42502;40.732;-74.254;2022-08-03T01:29:48;100118.91;;;30.60;39.22
56630;BME280;42502;40.732;-74.254;2022-08-03T01:31:58;100128.13;;;30.68;38.89
56630;BME280;42502;40.732;-74.254;2022-08-03T01:34:02;100124.41;;;30.71;39.17
56630;BME280;42502;40.732;-74.254;2022-08-03T01:36:13;100113.13;;;30.63;39.17
56630;BME280;42502;40.732;-74.254;2022-08-03T01:39:23;100125.19;;;30.71;38.79
56630;BME280;42502;40.732;-74.254;2022-08-03T01:41:16;100126.03;;;30.72;39.04
56630;BME280;42502;40.732;-74.254;2022-08-03T01:43:19;100147.44;;;30.80;38.72
56630;BME280;42502;40.732;-74.254;2022-08-03T01:45:23;100141.72;;;30.80;39.06
56630;BME280;42502;40.732;-74.254;2022-08-03T01:47:25;100146.19;;;30.81;38.72
56630;BME280;42502;40.732;-74.254;2022-08-03T01:49:29;100145.75;;;30.82;39.21
56630;BME280;42502;40.732;-74.254;2022-08-03T01:51:32;100144.22;;;30.78;38.94
56630;BME280;42502;40.732;-74.254;2022-08-03T01:53:34;100150.59;;;30.86;38.65
56630;BME280;42502;40.732;-74.254;2022-08-03T01:55:37;100156.72;;;30.84;39.01
56630;BME280;42502;40.732;-74.254;2022-08-03T01:57:42;100160.28;;;30.88;38.81
56630;BME280;42502;40.732;-74.254;2022-08-03T01:59:46;100156.19;;;30.89;39.04
56630;BME280;42502;40.732;-74.254;2022-08-03T02:01:48;100160.66;;;30.90;38.51
56630;BME280;42502;40.732;-74.254;2022-08-03T02:03:50;100153.34;;;30.89;38.57
56630;BME280;42502;40.732;-74.254;2022-08-03T02:05:53;100159.78;;;30.93;39.06
56630;BME280;42502;40.732;-74.254;2022-08-03T02:07:55;100167.09;;;30.94;38.59
56630;BME280;42502;40.732;-74.254;2022-08-03T02:09:57;100178.88;;;30.96;38.78
56630;BME280;42502;40.732;-74.254;2022-08-03T02:11:59;100181.31;;;30.98;38.62
56630;BME280;42502;40.732;-74.254;2022-08-03T02:14:03;100169.50;;;30.96;38.79
56630;BME280;42502;40.732;-74.254;2022-08-03T02:16:05;100180.06;;;30.99;38.82
56630;BME280;42502;40.732;-74.254;2022-08-03T02:18:07;100182.50;;;31.00;38.49
56630;BME280;42502;40.732;-74.254;2022-08-03T02:20:10;100185.69;;;31.03;38.94
56630;BME280;42502;40.732;-74.254;2022-08-03T02:22:12;100190.97;;;31.04;39.00
56630;BME280;42502;40.732;-74.254;2022-08-03T02:24:14;100179.25;;;30.98;38.82
56630;BME280;42502;40.732;-74.254;2022-08-03T02:26:18;100192.19;;;31.03;38.78
56630;BME280;42502;40.732;-74.254;2022-08-03T02:28:25;100187.31;;;31.04;38.89
56630;BME280;42502;40.732;-74.254;2022-08-03T02:30:33;100189.72;;;31.05;38.92
56630;BME280;42502;40.732;-74.254;2022-08-03T02:32:40;100193.28;;;31.09;38.89
56630;BME280;42502;40.732;-74.254;2022-08-03T02:34:46;100195.00;;;31.07;39.11
56630;BME280;42502;40.732;-74.254;2022-08-03T02:36:49;100192.16;;;31.07;38.86
56630;BME280;42502;40.732;-74.254;2022-08-03T02:38:54;100195.34;;;31.09;38.90
56630;BME280;42502;40.732;-74.254;2022-08-03T02:40:57;100209.09;;;31.14;38.45
56630;BME280;42502;40.732;-74.254;2022-08-03T02:43:05;100205.16;;;31.08;38.61
56630;BME280;42502;40.732;-74.254;2022-08-03T02:45:09;100209.09;;;31.14;38.64
56630;BME280;42502;40.732;-74.254;2022-08-03T02:47:14;100223.75;;;31.16;38.79
56630;BME280;42502;40.732;-74.254;2022-08-03T02:49:17;100218.81;;;31.16;38.35
56630;BME280;42502;40.732;-74.254;2022-08-03T02:51:19;100226.16;;;31.17;38.57
56630;BME280;42502;40.732;-74.254;2022-08-03T02:53:22;100234.28;;;31.19;38.54
56630;BME280;42502;40.732;-74.254;2022-08-03T02:55:25;100234.28;;;31.19;38.55
56630;BME280;42502;40.732;-74.254;2022-08-03T02:57:32;100243.19;;;31.21;38.98
56630;BME280;42502;40.732;-74.254;2022-08-03T02:59:35;100249.69;;;31.22;38.34
56630;BME280;42502;40.732;-74.254;2022-08-03T03:01:37;100247.66;;;31.22;38.47
56630;BME280;42502;40.732;-74.254;2022-08-03T03:03:39;100245.59;;;31.23;38.52
56630;BME280;42502;40.732;-74.254;2022-08-03T03:05:41;100250.06;;;31.24;38.89
56630;BME280;42502;40.732;-74.254;2022-08-03T03:07:43;100247.66;;;31.22;38.84
56630;BME280;42502;40.732;-74.254;2022-08-03T03:09:45;100254.50;;;31.25;38.91
56630;BME280;42502;40.732;-74.254;2022-08-03T03:11:47;100258.19;;;31.25;38.98
56630;BME280;42502;40.732;-74.254;2022-08-03T03:13:49;100256.56;;;31.24;38.56
56630;BME280;42502;40.732;-74.254;2022-08-03T03:15:51;100256.94;;;31.26;38.81
56630;BME280;42502;40.732;-74.254;2022-08-03T03:17:54;100267.91;;;31.28;38.39
56630;BME280;42502;40.732;-74.254;2022-08-03T03:19:56;100265.88;;;31.28;38.56
56630;BME280;42502;40.732;-74.254;2022-08-03T03:21:59;100265.88;;;31.28;38.90
56630;BME280;42502;40.732;-74.254;2022-08-03T03:24:01;100271.59;;;31.28;38.80
56630;BME280;42502;40.732;-74.254;2022-08-03T03:26:04;100267.53;;;31.26;38.64
56630;BME280;42502;40.732;-74.254;2022-08-03T03:28:05;100265.44;;;31.30;38.51
56630;BME280;42502;40.732;-74.254;2022-08-03T03:30:07;100278.47;;;31.31;38.93
56630;BME280;42502;40.732;-74.254;2022-08-03T03:32:08;100280.50;;;31.30;39.04
56630;BME280;42502;40.732;-74.254;2022-08-03T03:34:09;100273.16;;;31.29;38.96
56630;BME280;42502;40.732;-74.254;2022-08-03T03:36:10;100275.66;;;31.27;38.85
56630;BME280;42502;40.732;-74.254;2022-08-03T03:38:11;100287.81;;;31.31;38.48
56630;BME280;42502;40.732;-74.254;2022-08-03T03:40:13;100293.09;;;31.33;38.50
56630;BME280;42502;40.732;-74.254;2022-08-03T03:42:14;100293.88;;;31.33;38.83
56630;BME280;42502;40.732;-74.254;2022-08-03T03:44:15;100292.28;;;31.32;38.97
56630;BME280;42502;40.732;-74.254;2022-08-03T03:46:16;100288.56;;;31.35;38.64
56630;BME280;42502;40.732;-74.254;2022-08-03T03:48:18;100286.94;;;31.34;38.39
56630;BME280;42502;40.732;-74.254;2022-08-03T03:50:19;100288.63;;;31.32;38.96
56630;BME280;42502;40.732;-74.254;2022-08-03T03:52:21;100288.63;;;31.32;38.74
56630;BME280;42502;40.732;-74.254;2022-08-03T03:54:22;100290.69;;;31.31;39.08
56630;BME280;42502;40.732;-74.254;2022-08-03T03:56:23;100292.66;;;31.34;39.15
56630;BME280;42502;40.732;-74.254;2022-08-03T03:58:24;100291.03;;;31.33;39.05
56630;BME280;42502;40.732;-74.254;2022-08-03T04:00:25;100299.09;;;31.39;38.66
56630;BME280;42502;40.732;-74.254;2022-08-03T04:02:26;100304.81;;;31.39;39.09
56630;BME280;42502;40.732;-74.254;2022-08-03T04:04:27;100304.81;;;31.39;39.14
56630;BME280;42502;40.732;-74.254;2022-08-03T04:06:46;100310.88;;;31.41;38.47
56630;BME280;42502;40.732;-74.254;2022-08-03T04:09:07;100325.16;;;31.41;38.60
56630;BME280;42502;40.732;-74.254;2022-08-03T04:11:30;100317.81;;;31.40;38.51
56630;BME280;42502;40.732;-74.254;2022-08-03T04:13:41;100318.69;;;31.36;38.88
56630;BME280;42502;40.732;-74.254;2022-08-03T04:15:44;100325.16;;;31.41;38.97
56630;BME280;42502;40.732;-74.254;2022-08-03T04:17:47;100319.50;;;31.37;38.44
56630;BME280;42502;40.732;-74.254;2022-08-03T04:19:52;100325.16;;;31.41;38.44
56630;BME280;42502;40.732;-74.254;2022-08-03T04:21:56;100327.63;;;31.39;38.70
56630;BME280;42502;40.732;-74.254;2022-08-03T04:24:02;100330.84;;;31.41;38.57
56630;BME280;42502;40.732;-74.254;2022-08-03T04:26:04;100333.25;;;31.42;38.80
56630;BME280;42502;40.732;-74.254;2022-08-03T04:28:12;100327.63;;;31.39;38.58
56630;BME280;42502;40.732;-74.254;2022-08-03T04:30:15;100338.19;;;31.42;38.27
56630;BME280;42502;40.732;-74.254;2022-08-03T04:32:16;100334.94;;;31.40;38.45
56630;BME280;42502;40.732;-74.254;2022-08-03T04:34:17;100336.13;;;31.42;38.81
56630;BME280;42502;40.732;-74.254;2022-08-03T04:36:24;100335.81;;;31.36;38.61
56630;BME280;42502;40.732;-74.254;2022-08-03T04:38:26;100333.34;;;31.39;38.29
56630;BME280;42502;40.732;-74.254;2022-08-03T04:40:36;100334.94;;;31.40;38.20
56630;BME280;42502;40.732;-74.254;2022-08-03T04:42:39;100336.13;;;31.42;38.21
56630;BME280;42502;40.732;-74.254;2022-08-03T04:44:43;100344.75;;;31.39;38.52
56630;BME280;42502;40.732;-74.254;2022-08-03T04:46:45;100347.53;;;31.42;38.65
56630;BME280;42502;40.732;-74.254;2022-08-03T04:48:47;100350.38;;;31.42;38.71
56630;BME280;42502;40.732;-74.254;2022-08-03T04:50:48;100346.75;;;31.42;38.27
56630;BME280;42502;40.732;-74.254;2022-08-03T04:52:49;100350.38;;;31.42;38.61
56630;BME280;42502;40.732;-74.254;2022-08-03T04:54:50;100332.53;;;31.38;38.20
56630;BME280;42502;40.732;-74.254;2022-08-03T04:56:52;100320.44;;;31.30;38.56
56630;BME280;42502;40.732;-74.254;2022-08-03T04:58:52;100343.88;;;31.42;38.00
56630;BME280;42502;40.732;-74.254;2022-08-03T05:00:53;100343.06;;;31.41;38.33
56630;BME280;42502;40.732;-74.254;2022-08-03T05:02:54;100345.91;;;31.41;37.93
56630;BME280;42502;40.732;-74.254;2022-08-03T05:04:55;100349.22;;;31.40;38.22
56630;BME280;42502;40.732;-74.254;2022-08-03T05:06:56;100348.78;;;31.41;38.01
56630;BME280;42502;40.732;-74.254;2022-08-03T05:08:57;100350.47;;;31.39;38.06
56630;BME280;42502;40.732;-74.254;2022-08-03T05:10:58;100346.78;;;31.38;38.31
56630;BME280;42502;40.732;-74.254;2022-08-03T05:12:59;100353.31;;;31.39;37.97
56630;BME280;42502;40.732;-74.254;2022-08-03T05:15:00;100343.22;;;31.34;38.24
56630;BME280;42502;40.732;-74.254;2022-08-03T05:17:01;100345.56;;;31.39;38.28
56630;BME280;42502;40.732;-74.254;2022-08-03T05:19:01;100352.06;;;31.40;37.94
56630;BME280;42502;40.732;-74.254;2022-08-03T05:21:03;100351.28;;;31.39;37.70
56630;BME280;42502;40.732;-74.254;2022-08-03T05:23:04;100338.31;;;31.34;37.97
56630;BME280;42502;40.732;-74.254;2022-08-03T05:25:05;100359.03;;;31.39;37.67
56630;BME280;42502;40.732;-74.254;2022-08-03T05:27:06;100350.53;;;31.35;37.89
56630;BME280;42502;40.732;-74.254;2022-08-03T05:29:07;100359.84;;;31.39;37.87
56630;BME280;42502;40.732;-74.254;2022-08-03T05:31:07;100358.22;;;31.38;37.95
56630;BME280;42502;40.732;-74.254;2022-08-03T05:33:08;100353.75;;;31.37;37.56
56630;BME280;42502;40.732;-74.254;2022-08-03T05:35:10;100357.41;;;31.38;37.99
56630;BME280;42502;40.732;-74.254;2022-08-03T05:37:11;100364.34;;;31.36;38.10
56630;BME280;42502;40.732;-74.254;2022-08-03T05:39:11;100366.78;;;31.38;37.96
56630;BME280;42502;40.732;-74.254;2022-08-03T05:41:12;100358.66;;;31.36;37.87
56630;BME280;42502;40.732;-74.254;2022-08-03T05:43:13;100364.34;;;31.36;37.55
56630;BME280;42502;40.732;-74.254;2022-08-03T05:45:14;100356.66;;;31.33;37.85
56630;BME280;42502;40.732;-74.254;2022-08-03T05:47:17;100365.63;;;31.35;37.40
56630;BME280;42502;40.732;-74.254;2022-08-03T05:49:18;100366.84;;;31.34;37.53
56630;BME280;42502;40.732;-74.254;2022-08-03T05:51:19;100360.34;;;31.34;37.90
56630;BME280;42502;40.732;-74.254;2022-08-03T05:53:20;100360.34;;;31.34;37.52
56630;BME280;42502;40.732;-74.254;2022-08-03T05:55:20;100369.72;;;31.34;37.53
56630;BME280;42502;40.732;-74.254;2022-08-03T05:57:21;100364.44;;;31.33;37.46
56630;BME280;42502;40.732;-74.254;2022-08-03T05:59:22;100364.88;;;31.31;37.45
56630;BME280;42502;40.732;-74.254;2022-08-03T06:01:24;100370.94;;;31.33;37.75
56630;BME280;42502;40.732;-74.254;2022-08-03T06:03:25;100375.06;;;31.32;37.39
56630;BME280;42502;40.732;-74.254;2022-08-03T06:05:27;100376.28;;;31.31;37.72
56630;BME280;42502;40.732;-74.254;2022-08-03T06:07:27;100373.03;;;31.29;37.65
56630;BME280;42502;40.732;-74.254;2022-08-03T06:09:28;100364.50;;;31.29;37.55
56630;BME280;42502;40.732;-74.254;2022-08-03T06:11:29;100374.66;;;31.30;37.62
56630;BME280;42502;40.732;-74.254;2022-08-03T06:13:30;100377.53;;;31.30;37.73
56630;BME280;42502;40.732;-74.254;2022-08-03T06:15:31;100373.56;;;31.24;37.57
56630;BME280;42502;40.732;-74.254;2022-08-03T06:17:46;100382.03;;;31.28;37.23
56630;BME280;42502;40.732;-74.254;2022-08-03T06:19:47;100377.59;;;31.27;37.22
56630;BME280;42502;40.732;-74.254;2022-08-03T06:21:48;100378.75;;;31.29;37.25
56630;BME280;42502;40.732;-74.254;2022-08-03T06:23:48;100376.34;;;31.28;37.19
56630;BME280;42502;40.732;-74.254;2022-08-03T06:25:50;100375.53;;;31.27;37.67
56630;BME280;42502;40.732;-74.254;2022-08-03T06:27:50;100376.06;;;31.22;37.25
56630;BME280;42502;40.732;-74.254;2022-08-03T06:29:51;100384.09;;;31.27;37.07
56630;BME280;42502;40.732;-74.254;2022-08-03T06:31:52;100383.31;;;31.27;37.57
56630;BME280;42502;40.732;-74.254;2022-08-03T06:33:53;100378.53;;;31.20;37.11
56630;BME280;42502;40.732;-74.254;2022-08-03T06:35:53;100380.88;;;31.25;37.10
56630;BME280;42502;40.732;-74.254;2022-08-03T06:37:54;100392.31;;;31.25;37.52
56630;BME280;42502;40.732;-74.254;2022-08-03T06:39:56;100385.41;;;31.23;37.13
56630;BME280;42502;40.732;-74.254;2022-08-03T06:41:57;100393.53;;;31.24;37.07
56630;BME280;42502;40.732;-74.254;2022-08-03T06:43:58;100394.34;;;31.25;37.49
56630;BME280;42502;40.732;-74.254;2022-08-03T06:45:58;100391.47;;;31.25;37.03
56630;BME280;42502;40.732;-74.254;2022-08-03T06:48:09;100390.31;;;31.22;37.08
56630;BME280;42502;40.732;-74.254;2022-08-03T06:50:10;100372.22;;;31.09;37.31
56630;BME280;42502;40.732;-74.254;2022-08-03T06:52:11;100395.66;;;31.20;37.32
56630;BME280;42502;40.732;-74.254;2022-08-03T06:54:12;100400.56;;;31.20;36.99
56630;BME280;42502;40.732;-74.254;2022-08-03T06:56:13;100407.44;;;31.22;37.00
56630;BME280;42502;40.732;-74.254;2022-08-03T06:58:14;100399.75;;;31.19;37.38
56630;BME280;42502;40.732;-74.254;2022-08-03T07:00:15;100407.06;;;31.20;37.11
56630;BME280;42502;40.732;-74.254;2022-08-03T07:02:16;100402.97;;;31.21;37.45
56630;BME280;42502;40.732;-74.254;2022-08-03T07:04:20;100409.53;;;31.18;37.27
56630;BME280;42502;40.732;-74.254;2022-08-03T07:06:21;100399.75;;;31.19;36.97
56630;BME280;42502;40.732;-74.254;2022-08-03T07:08:21;100409.13;;;31.20;37.44
56630;BME280;42502;40.732;-74.254;2022-08-03T07:10:23;100408.31;;;31.19;36.93
56630;BME280;42502;40.732;-74.254;2022-08-03T07:12:28;100407.94;;;31.17;36.87
56630;BME280;42502;40.732;-74.254;2022-08-03T07:14:29;100405.06;;;31.17;37.14
56630;BME280;42502;40.732;-74.254;2022-08-03T07:16:30;100407.13;;;31.16;37.33
56630;BME280;42502;40.732;-74.254;2022-08-03T07:18:31;100420.16;;;31.17;37.32
56630;BME280;42502;40.732;-74.254;2022-08-03T07:20:32;100423.44;;;31.16;37.26
56630;BME280;42502;40.732;-74.254;2022-08-03T07:22:33;100428.78;;;31.14;36.75
56630;BME280;42502;40.732;-74.254;2022-08-03T07:24:34;100435.66;;;31.16;36.91
56630;BME280;42502;40.732;-74.254;2022-08-03T07:26:35;100436.91;;;31.15;36.82
56630;BME280;42502;40.732;-74.254;2022-08-03T07:28:36;100427.63;;;31.11;37.13
56630;BME280;42502;40.732;-74.254;2022-08-03T07:30:37;100421.09;;;31.11;36.82
56630;BME280;42502;40.732;-74.254;2022-08-03T07:32:38;100429.22;;;31.12;36.70
56630;BME280;42502;40.732;-74.254;2022-08-03T07:34:39;100438.59;;;31.13;37.15
56630;BME280;42502;40.732;-74.254;2022-08-03T07:36:40;100421.91;;;31.11;36.80
56630;BME280;42502;40.732;-74.254;2022-08-03T07:38:41;100430.47;;;31.11;37.20
56630;BME280;42502;40.732;-74.254;2022-08-03T07:40:41;100431.69;;;31.10;36.75
56630;BME280;42502;40.732;-74.254;2022-08-03T07:42:42;100430.91;;;31.10;37.29
56630;BME280;42502;40.732;-74.254;2022-08-03T07:44:43;100432.94;;;31.09;37.31
56630;BME280;42502;40.732;-74.254;2022-08-03T07:46:44;100430.91;;;31.10;36.83
56630;BME280;42502;40.732;-74.254;2022-08-03T07:48:45;100432.13;;;31.09;37.12
56630;BME280;42502;40.732;-74.254;2022-08-03T07:50:45;100435.06;;;31.05;36.78
56630;BME280;42502;40.732;-74.254;2022-08-03T07:52:47;100439.91;;;31.08;37.15
56630;BME280;42502;40.732;-74.254;2022-08-03T07:54:47;100441.13;;;31.07;36.79
56630;BME280;42502;40.732;-74.254;2022-08-03T07:56:48;100446.81;;;31.07;36.79
56630;BME280;42502;40.732;-74.254;2022-08-03T07:58:52;100457.06;;;31.05;37.12
56630;BME280;42502;40.732;-74.254;2022-08-03T08:00:53;100463.16;;;31.07;36.79
56630;BME280;42502;40.732;-74.254;2022-08-03T08:02:54;100452.16;;;31.05;36.61
56630;BME280;42502;40.732;-74.254;2022-08-03T08:04:55;100464.38;;;31.06;36.68
56630;BME280;42502;40.732;-74.254;2022-08-03T08:06:56;100459.91;;;31.05;36.62
56630;BME280;42502;40.732;-74.254;2022-08-03T08:08:56;100472.56;;;31.04;36.51
56630;BME280;42502;40.732;-74.254;2022-08-03T08:11:01;100468.09;;;31.03;36.60
56630;BME280;42502;40.732;-74.254;2022-08-03T08:13:03;100457.13;;;30.97;36.53
56630;BME280;42502;40.732;-74.254;2022-08-03T08:15:05;100480.75;;;31.02;36.53
56630;BME280;42502;40.732;-74.254;2022-08-03T08:17:06;100473.44;;;31.00;36.64
56630;BME280;42502;40.732;-74.254;2022-08-03T08:19:07;100477.53;;;30.96;36.92
56630;BME280;42502;40.732;-74.254;2022-08-03T08:21:08;100480.38;;;30.99;36.89
56630;BME280;42502;40.732;-74.254;2022-08-03T08:23:09;100485.66;;;30.97;36.81
56630;BME280;42502;40.732;-74.254;2022-08-03T08:25:10;100492.22;;;30.94;36.66
56630;BME280;42502;40.732;-74.254;2022-08-03T08:27:11;100490.56;;;30.97;36.49
56630;BME280;42502;40.732;-74.254;2022-08-03T08:29:12;100496.25;;;30.97;36.87
56630;BME280;42502;40.732;-74.254;2022-08-03T08:31:12;100501.19;;;30.96;36.48
56630;BME280;42502;40.732;-74.254;2022-08-03T08:33:13;100507.31;;;30.95;36.47
56630;BME280;42502;40.732;-74.254;2022-08-03T08:35:15;100508.09;;;30.95;36.57
56630;BME280;42502;40.732;-74.254;2022-08-03T08:37:16;100510.97;;;30.95;36.35
56630;BME280;42502;40.732;-74.254;2022-08-03T08:39:17;100509.41;;;30.91;36.58
56630;BME280;42502;40.732;-74.254;2022-08-03T08:41:18;100511.47;;;30.90;36.67
56630;BME280;42502;40.732;-74.254;2022-08-03T08:43:19;100508.22;;;30.88;36.25
56630;BME280;42502;40.732;-74.254;2022-08-03T08:45:20;100508.19;;;30.92;36.76
56630;BME280;42502;40.732;-74.254;2022-08-03T08:47:25;100521.59;;;30.91;36.71
56630;BME280;42502;40.732;-74.254;2022-08-03T08:49:28;100507.03;;;30.86;36.76
56630;BME280;42502;40.732;-74.254;2022-08-03T08:51:33;100507.84;;;30.86;36.86
56630;BME280;42502;40.732;-74.254;2022-08-03T08:53:37;100502.13;;;30.86;36.76
56630;BME280;42502;40.732;-74.254;2022-08-03T08:55:39;100511.94;;;30.85;36.50
56630;BME280;42502;40.732;-74.254;2022-08-03T08:57:47;100509.06;;;30.85;36.32
56630;BME280;42502;40.732;-74.254;2022-08-03T08:59:48;100518.81;;;30.88;36.82
56630;BME280;42502;40.732;-74.254;2022-08-03T09:01:49;100517.19;;;30.87;36.38
56630;BME280;42502;40.732;-74.254;2022-08-03T09:03:50;100508.72;;;30.83;36.42
56630;BME280;42502;40.732;-74.254;2022-08-03T09:05:53;100516.84;;;30.85;36.54
56630;BME280;42502;40.732;-74.254;2022-08-03T09:07:54;100517.63;;;30.85;36.77
56630;BME280;42502;40.732;-74.254;2022-08-03T09:09:55;100519.75;;;30.81;36.38
56630;BME280;42502;40.732;-74.254;2022-08-03T09:11:56;100513.66;;;30.79;36.48
56630;BME280;42502;40.732;-74.254;2022-08-03T09:13:57;100524.19;;;30.82;36.78
56630;BME280;42502;40.732;-74.254;2022-08-03T09:16:16;100523.81;;;30.80;36.53
56630;BME280;42502;40.732;-74.254;2022-08-03T09:18:27;100498.78;;;30.64;36.44
56630;BME280;42502;40.732;-74.254;2022-08-03T09:20:33;100514.47;;;30.79;36.48
56630;BME280;42502;40.732;-74.254;2022-08-03T09:22:34;100523.03;;;30.79;36.35
56630;BME280;42502;40.732;-74.254;2022-08-03T09:24:36;100527.47;;;30.80;36.63
56630;BME280;42502;40.732;-74.254;2022-08-03T09:26:37;100524.69;;;30.77;36.63
56630;BME280;42502;40.732;-74.254;2022-08-03T09:28:39;100527.16;;;30.75;36.61
56630;BME280;42502;40.732;-74.254;2022-08-03T09:30:57;100529.59;;;30.76;36.56
56630;BME280;42502;40.732;-74.254;2022-08-03T09:33:02;100534.88;;;30.78;36.81
56630;BME280;42502;40.732;-74.254;2022-08-03T09:35:03;100542.59;;;30.77;36.28
56630;BME280;42502;40.732;-74.254;2022-08-03T09:37:12;100541.00;;;30.76;36.76
56630;BME280;42502;40.732;-74.254;2022-08-03T09:39:19;100546.69;;;30.76;36.71
56630;BME280;42502;40.732;-74.254;2022-08-03T09:41:20;100547.13;;;30.75;36.61
56630;BME280;42502;40.732;-74.254;2022-08-03T09:43:22;100544.75;;;30.70;36.40
56630;BME280;42502;40.732;-74.254;2022-08-03T09:45:26;100549.59;;;30.73;36.66
56630;BME280;42502;40.732;-74.254;2022-08-03T09:47:31;100556.13;;;30.73;36.40
56630;BME280;42502;40.732;-74.254;2022-08-03T09:49:32;100541.94;;;30.66;36.29
56630;BME280;42502;40.732;-74.254;2022-08-03T09:51:33;100544.31;;;30.71;36.33
56630;BME280;42502;40.732;-74.254;2022-08-03T09:53:44;100556.56;;;30.68;36.39
56630;BME280;42502;40.732;-74.254;2022-08-03T09:55:59;100551.69;;;30.69;36.59
56630;BME280;42502;40.732;-74.254;2022-08-03T09:58:09;100559.44;;;30.68;36.33
56630;BME280;42502;40.732;-74.254;2022-08-03T10:00:12;100544.75;;;30.70;36.16
56630;BME280;42502;40.732;-74.254;2022-08-03T10:02:40;100545.22;;;30.64;36.70
56630;BME280;42502;40.732;-74.254;2022-08-03T10:04:47;100557.00;;;30.67;36.30
56630;BME280;42502;40.732;-74.254;2022-08-03T10:07:07;100549.31;;;30.63;36.22
56630;BME280;42502;40.732;-74.254;2022-08-03T10:09:10;100554.16;;;30.67;36.24
56630;BME280;42502;40.732;-74.254;2022-08-03T10:11:15;100558.22;;;30.65;36.12
56630;BME280;42502;40.732;-74.254;2022-08-03T10:13:28;100555.38;;;30.65;36.23
56630;BME280;42502;40.732;-74.254;2022-08-03T10:15:30;100548.06;;;30.64;36.33
56630;BME280;42502;40.732;-74.254;2022-08-03T10:17:30;100551.78;;;30.61;36.29
56630;BME280;42502;40.732;-74.254;2022-08-03T10:19:32;100542.03;;;30.59;36.38
56630;BME280;42502;40.732;-74.254;2022-08-03T10:21:34;100549.38;;;30.60;36.59
56630;BME280;42502;40.732;-74.254;2022-08-03T10:23:37;100559.50;;;30.61;36.64
56630;BME280;42502;40.732;-74.254;2022-08-03T10:25:38;100557.50;;;30.61;36.79
56630;BME280;42502;40.732;-74.254;2022-08-03T10:27:41;100564.41;;;30.60;36.75
56630;BME280;42502;40.732;-74.254;2022-08-03T10:29:51;100562.78;;;30.59;36.62
56630;BME280;42502;40.732;-74.254;2022-08-03T10:31:57;100553.44;;;30.59;36.84
56630;BME280;42502;40.732;-74.254;2022-08-03T10:34:01;100556.28;;;30.59;36.69
56630;BME280;42502;40.732;-74.254;2022-08-03T10:36:05;100553.88;;;30.57;36.60
56630;BME280;42502;40.732;-74.254;2022-08-03T10:38:15;100557.94;;;30.56;36.73